Time;durP1;ratioP1;P1;durP2;ratioP2;P2;SDS_P1;SDS_P2;PMS_P1;PMS_P2;Temp;Humidity;BMP_temperature;BMP_pressure;BME280_temperature;BME280_humidity;BME280_pressure;Samples;Min_cycle;Max_cycle;Signal;HPM_P1;HPM_P2
2022/01/09 00:00:15;;;;;;;6.85;2.25;;;3.50;99.90;;;;;;5058597;28;20048;-83
2022/01/09 00:02:41;;;;;;;6.10;2.40;;;3.40;99.90;;;;;;5074718;28;20036;-86
2022/01/09 00:05:08;;;;;;;5.93;2.25;;;3.40;99.90;;;;;;5056245;28;20506;-79
2022/01/09 00:07:34;;;;;;;5.57;2.13;;;3.40;99.90;;;;;;5074812;28;20440;-84
2022/01/09 00:10:00;;;;;;;5.32;2.20;;;3.40;99.90;;;;;;5074319;28;20045;-79
2022/01/09 00:12:26;;;;;;;5.55;2.35;;;3.40;99.90;;;;;;5074196;28;20102;-86
2022/01/09 00:14:52;;;;;;;7.55;2.63;;;3.50;99.90;;;;;;5056013;28;20046;-85
2022/01/09 00:17:18;;;;;;;7.38;2.05;;;3.40;99.90;;;;;;5074257;28;20071;-84
2022/01/09 00:19:44;;;;;;;7.55;2.40;;;3.40;99.90;;;;;;5073966;28;20082;-84
2022/01/09 00:22:10;;;;;;;5.47;2.30;;;3.40;99.90;;;;;;5074068;28;20052;-84
2022/01/09 00:24:36;;;;;;;5.57;2.17;;;3.40;99.90;;;;;;5073837;28;20055;-85
2022/01/09 00:27:01;;;;;;;8.20;3.10;;;4.40;99.90;;;;;;5055501;28;20451;-85
2022/01/09 00:29:27;;;;;;;7.38;2.47;;;3.40;99.90;;;;;;5073775;28;20048;-83
2022/01/09 00:31:53;;;;;;;7.03;3.00;;;3.40;99.90;;;;;;5073676;28;20044;-79
2022/01/09 00:34:18;;;;;;;5.72;2.13;;;3.50;99.90;;;;;;5073312;28;20531;-78
2022/01/09 00:36:44;;;;;;;6.00;2.60;;;3.40;99.90;;;;;;5073622;28;20467;-77
2022/01/09 00:39:10;;;;;;;7.47;2.20;;;3.50;99.90;;;;;;5073364;28;20041;-74
2022/01/09 00:41:35;;;;;;;6.22;2.30;;;3.40;99.90;;;;;;5073470;28;20047;-77
2022/01/09 00:44:02;;;;;;;5.32;2.17;;;3.40;99.90;;;;;;5073130;28;20040;-77
2022/01/09 00:46:27;;;;;;;5.32;2.50;;;3.40;99.90;;;;;;5073507;28;20515;-76
2022/01/09 00:48:54;;;;;;;5.55;2.92;;;3.40;99.90;;;;;;5073262;28;20041;-76
2022/01/09 00:51:20;;;;;;;4.60;2.03;;;3.50;99.90;;;;;;5073597;28;20045;-78
2022/01/09 00:53:45;;;;;;;7.15;2.92;;;3.50;99.90;;;;;;5073032;28;20135;-76
2022/01/09 00:56:11;;;;;;;4.60;1.98;;;4.20;99.90;;;;;;5073441;28;20037;-85
2022/01/09 00:58:36;;;;;;;6.20;2.28;;;3.40;99.90;;;;;;5054773;28;20123;-85
2022/01/09 01:01:02;;;;;;;4.82;1.80;;;3.50;99.90;;;;;;5073133;28;20040;-85
2022/01/09 01:03:28;;;;;;;5.30;2.17;;;3.50;99.90;;;;;;5073050;28;20056;-85
2022/01/09 01:05:54;;;;;;;6.60;2.35;;;3.40;99.90;;;;;;5073117;28;20074;-85
2022/01/09 01:08:19;;;;;;;6.32;2.17;;;3.70;99.90;;;;;;5073442;28;20032;-86
2022/01/09 01:10:45;;;;;;;4.80;1.90;;;3.40;99.90;;;;;;5073038;28;20048;-80
2022/01/09 01:13:11;;;;;;;4.53;1.92;;;3.40;99.90;;;;;;5073180;28;20079;-85
2022/01/09 01:15:36;;;;;;;5.35;2.05;;;3.40;99.90;;;;;;5073196;28;20044;-85
2022/01/09 01:18:02;;;;;;;4.10;1.90;;;3.40;99.90;;;;;;5075275;28;20045;-84
2022/01/09 01:20:29;;;;;;;6.20;2.25;;;3.40;99.90;;;;;;5078646;28;20402;-84
2022/01/09 01:22:58;;;;;;;6.45;2.42;;;3.40;99.90;;;;;;5076492;28;20100;-75
2022/01/09 01:25:24;;;;;;;5.75;2.30;;;3.40;99.90;;;;;;5074218;28;20102;-79
2022/01/09 01:27:49;;;;;;;4.97;2.35;;;3.40;99.90;;;;;;5073663;28;20139;-76
2022/01/09 01:30:15;;;;;;;7.20;2.55;;;3.40;99.90;;;;;;5072803;28;20119;-78
2022/01/09 01:32:42;;;;;;;6.00;2.53;;;3.40;99.90;;;;;;5072521;28;20098;-76
2022/01/09 01:35:08;;;;;;;6.93;2.60;;;3.40;99.90;;;;;;5072390;28;20124;-78
2022/01/09 01:37:38;;;;;;;5.47;2.40;;;3.40;99.90;;;;;;5072643;28;20048;-78
2022/01/09 01:40:06;;;;;;;6.35;2.30;;;3.40;99.90;;;;;;5072465;28;20517;-78
2022/01/09 01:42:31;;;;;;;5.53;2.50;;;3.40;99.90;;;;;;5072625;28;20071;-78
2022/01/09 01:44:57;;;;;;;5.63;2.60;;;3.40;99.90;;;;;;5072556;28;20079;-76
2022/01/09 01:47:22;;;;;;;5.80;2.33;;;3.50;99.90;;;;;;5072464;28;20040;-75
2022/01/09 01:49:49;;;;;;;4.35;1.92;;;3.40;99.90;;;;;;5072327;28;20048;-78
2022/01/09 01:52:16;;;;;;;5.97;2.22;;;3.40;99.90;;;;;;5072383;28;20090;-79
2022/01/09 01:54:43;;;;;;;6.15;2.13;;;3.40;99.90;;;;;;5072548;28;20040;-78
2022/01/09 01:57:09;;;;;;;6.30;2.50;;;3.40;99.90;;;;;;5072328;28;20739;-77
2022/01/09 01:59:35;;;;;;;6.22;2.75;;;3.40;99.90;;;;;;5072400;28;20037;-78
2022/01/09 02:02:01;;;;;;;3.80;2.05;;;3.40;99.90;;;;;;5072466;28;20068;-77
2022/01/09 02:04:27;;;;;;;5.50;1.88;;;3.40;99.90;;;;;;5072459;28;20079;-78
2022/01/09 02:06:54;;;;;;;8.82;3.03;;;4.10;99.90;;;;;;5074915;28;20098;-78
2022/01/09 02:09:20;;;;;;;6.03;2.30;;;3.40;99.90;;;;;;5058804;28;20393;-76
2022/01/09 02:11:46;;;;;;;7.07;2.85;;;3.40;99.90;;;;;;5058458;28;20051;-76
2022/01/09 02:14:12;;;;;;;6.97;2.78;;;3.40;99.90;;;;;;5076385;28;20494;-78
2022/01/09 02:16:44;;;;;;;6.00;2.70;;;3.30;99.90;;;;;;5076256;28;20086;-79
2022/01/09 02:19:14;;;;;;;6.78;2.72;;;3.40;99.90;;;;;;5076190;28;20051;-84
2022/01/09 02:21:44;;;;;;;8.07;2.95;;;3.40;99.90;;;;;;5076133;28;20063;-80
2022/01/09 02:24:11;;;;;;;9.18;2.63;;;3.40;99.90;;;;;;5076380;28;20055;-83
2022/01/09 02:26:37;;;;;;;4.90;1.90;;;3.40;99.90;;;;;;5076057;28;20083;-76
2022/01/09 02:29:05;;;;;;;6.22;2.60;;;3.40;99.90;;;;;;5076030;28;20068;-82
2022/01/09 02:31:34;;;;;;;6.15;2.58;;;3.40;99.90;;;;;;5058158;28;20054;-78
2022/01/09 02:34:00;;;;;;;5.82;2.45;;;3.40;99.90;;;;;;5075957;28;20051;-78
2022/01/09 02:36:26;;;;;;;7.85;3.28;;;3.40;99.90;;;;;;5058059;28;20428;-79
2022/01/09 02:38:52;;;;;;;7.07;2.70;;;3.40;99.90;;;;;;5075925;28;20048;-80
2022/01/09 02:41:18;;;;;;;7.60;2.47;;;3.40;99.90;;;;;;5075788;28;20044;-78
2022/01/09 02:43:44;;;;;;;6.15;2.33;;;3.30;99.90;;;;;;5080725;28;20379;-78
2022/01/09 02:46:29;;;;;;;5.53;2.30;;;3.30;99.90;;;;;;5082088;28;20040;-77
2022/01/09 02:48:54;;;;;;;5.78;2.38;;;3.40;99.90;;;;;;5081299;28;20048;-78
2022/01/09 02:51:20;;;;;;;6.55;2.47;;;3.40;99.90;;;;;;5057865;28;20037;-80
2022/01/09 02:53:48;;;;;;;6.78;2.25;;;3.40;99.90;;;;;;5075824;28;20041;-81
2022/01/09 02:56:15;;;;;;;6.28;2.67;;;3.40;99.90;;;;;;5075721;28;20051;-80
2022/01/09 02:58:42;;;;;;;7.03;2.50;;;3.40;99.90;;;;;;5075413;28;20040;-82
2022/01/09 03:01:09;;;;;;;9.23;3.05;;;3.40;99.90;;;;;;5075587;28;20051;-80
2022/01/09 03:03:36;;;;;;;6.70;2.75;;;3.40;99.90;;;;;;5074998;28;20049;-79
2022/01/09 03:06:02;;;;;;;8.80;3.05;;;3.40;99.90;;;;;;5075840;28;20477;-84
2022/01/09 03:08:29;;;;;;;6.35;2.53;;;3.40;99.90;;;;;;5075602;28;20043;-83
2022/01/09 03:10:55;;;;;;;6.55;2.63;;;3.40;99.90;;;;;;5075511;28;20119;-76
2022/01/09 03:13:21;;;;;;;15.50;8.43;;;3.40;99.90;;;;;;5074985;28;20049;-77
2022/01/09 03:15:47;;;;;;;16.20;8.00;;;3.40;99.90;;;;;;5075076;28;20040;-78
2022/01/09 03:18:13;;;;;;;16.85;8.85;;;3.40;99.90;;;;;;5074195;28;20052;-78
2022/01/09 03:20:40;;;;;;;16.92;9.45;;;3.40;99.90;;;;;;5075261;28;20454;-77
2022/01/09 03:23:06;;;;;;;19.35;9.65;;;3.40;99.90;;;;;;5074990;28;20040;-77
2022/01/09 03:25:32;;;;;;;19.10;10.60;;;3.40;99.90;;;;;;5074995;28;20041;-78
2022/01/09 03:27:58;;;;;;;19.70;10.50;;;3.40;99.90;;;;;;5074890;28;20048;-77
2022/01/09 03:30:26;;;;;;;18.95;10.60;;;3.40;99.90;;;;;;5074814;28;20115;-77
2022/01/09 03:32:53;;;;;;;19.42;10.40;;;3.40;99.90;;;;;;5074518;28;20040;-77
2022/01/09 03:35:21;;;;;;;21.58;12.68;;;3.40;99.90;;;;;;5074971;28;20075;-77
2022/01/09 03:37:48;;;;;;;19.45;12.02;;;3.50;99.90;;;;;;5056977;28;20505;-76
2022/01/09 03:40:18;;;;;;;22.90;13.00;;;3.50;99.90;;;;;;5056632;28;20486;-77
2022/01/09 03:42:48;;;;;;;24.63;13.30;;;3.50;99.90;;;;;;5056892;28;20040;-77
2022/01/09 03:45:15;;;;;;;23.63;13.88;;;3.50;99.90;;;;;;5074528;28;20110;-78
2022/01/09 03:47:41;;;;;;;22.23;13.13;;;3.50;99.90;;;;;;5074278;28;20048;-77
2022/01/09 03:50:09;;;;;;;22.83;13.57;;;4.20;99.90;;;;;;5074640;28;20047;-77
2022/01/09 03:52:37;;;;;;;23.77;13.65;;;3.60;99.90;;;;;;5074653;28;20124;-75
2022/01/09 03:55:04;;;;;;;23.42;13.40;;;3.60;99.90;;;;;;5074737;28;20383;-79
2022/01/09 03:57:30;;;;;;;25.13;14.02;;;3.60;99.90;;;;;;5075640;28;20041;-75
2022/01/09 03:59:56;;;;;;;24.70;13.18;;;3.70;99.90;;;;;;5075015;28;20056;-75
2022/01/09 04:02:22;;;;;;;21.48;11.90;;;4.60;99.90;;;;;;5074951;28;20452;-77
2022/01/09 04:04:47;;;;;;;21.55;10.88;;;4.50;99.90;;;;;;5056743;28;20486;-78
2022/01/09 04:07:15;;;;;;;18.38;9.95;;;4.20;99.90;;;;;;5074463;28;20094;-79
2022/01/09 04:09:43;;;;;;;23.75;9.27;;;3.80;99.90;;;;;;5074209;28;20055;-78
2022/01/09 04:12:15;;;;;;;22.63;9.30;;;3.90;99.90;;;;;;5073957;28;20119;-79
2022/01/09 04:14:47;;;;;;;21.00;7.45;;;4.00;99.90;;;;;;5073900;28;20063;-77
2022/01/09 04:17:22;;;;;;;20.80;7.50;;;4.00;99.90;;;;;;5073994;28;20033;-78
2022/01/09 04:19:48;;;;;;;16.48;6.50;;;4.10;99.90;;;;;;5074174;28;20037;-80
2022/01/09 04:22:14;;;;;;;16.00;5.70;;;4.20;99.90;;;;;;5056170;28;20162;-84
2022/01/09 04:24:39;;;;;;;17.20;5.53;;;4.20;99.90;;;;;;5039010;28;20132;-83
2022/01/09 04:27:05;;;;;;;18.65;4.72;;;4.30;99.90;;;;;;5073774;28;20436;-79
2022/01/09 04:29:31;;;;;;;13.43;4.35;;;4.30;99.90;;;;;;5054931;28;20040;-83
2022/01/09 04:31:57;;;;;;;13.57;4.63;;;4.30;99.90;;;;;;5055679;28;20437;-85
2022/01/09 04:34:22;;;;;;;14.43;4.43;;;4.30;99.90;;;;;;5073527;28;20037;-85
2022/01/09 04:36:48;;;;;;;16.30;4.43;;;4.40;99.90;;;;;;5073693;28;20048;-83
2022/01/09 04:39:14;;;;;;;18.08;4.72;;;5.00;99.90;;;;;;5073465;28;20044;-84
2022/01/09 04:41:39;;;;;;;21.55;4.30;;;4.40;99.90;;;;;;5055452;28;20135;-85
2022/01/09 04:44:05;;;;;;;18.73;3.92;;;4.40;99.90;;;;;;5038469;28;20083;-84
2022/01/09 04:46:41;;;;;;;22.67;3.83;;;4.40;99.90;;;;;;5073534;28;20106;-80
2022/01/09 04:49:07;;;;;;;20.92;4.35;;;4.40;99.90;;;;;;5055696;28;20064;-83
2022/01/09 04:51:32;;;;;;;16.27;3.67;;;4.40;99.90;;;;;;5073337;28;20498;-84
2022/01/09 04:53:58;;;;;;;19.85;4.03;;;4.80;99.90;;;;;;5073249;28;20090;-85
2022/01/09 04:56:24;;;;;;;17.60;3.55;;;4.50;99.90;;;;;;5073290;28;20036;-77
2022/01/09 04:58:49;;;;;;;18.13;3.70;;;4.60;99.90;;;;;;5073010;28;20052;-78
2022/01/09 05:01:15;;;;;;;17.27;2.90;;;4.50;99.90;;;;;;5073080;28;20044;-77
2022/01/09 05:03:41;;;;;;;15.15;3.20;;;4.50;99.90;;;;;;5073043;28;20093;-79
2022/01/09 05:06:06;;;;;;;19.27;4.00;;;4.90;99.90;;;;;;5055026;28;20128;-78
2022/01/09 05:08:32;;;;;;;21.30;3.67;;;4.50;99.90;;;;;;5073631;28;20082;-80
2022/01/09 05:10:58;;;;;;;17.75;3.20;;;4.50;99.90;;;;;;5055379;28;20054;-86
2022/01/09 05:13:24;;;;;;;21.88;3.58;;;4.60;99.90;;;;;;5073177;28;20056;-85
2022/01/09 05:15:49;;;;;;;28.80;3.88;;;4.60;99.90;;;;;;5074188;28;20040;-85
2022/01/09 05:18:15;;;;;;;21.00;4.50;;;4.60;99.90;;;;;;5079411;28;20036;-83
2022/01/09 05:20:42;;;;;;;30.80;4.28;;;4.60;99.90;;;;;;5080190;28;20048;-76
2022/01/09 05:23:08;;;;;;;28.17;4.53;;;4.70;99.90;;;;;;5074300;28;20036;-77
2022/01/09 05:25:33;;;;;;;28.08;4.70;;;4.80;99.90;;;;;;5055980;28;20052;-78
2022/01/09 05:27:59;;;;;;;29.95;5.35;;;4.80;99.90;;;;;;5054692;28;20056;-77
2022/01/09 05:30:24;;;;;;;30.83;5.32;;;4.80;99.90;;;;;;5054980;28;20090;-78
2022/01/09 05:32:50;;;;;;;26.08;4.40;;;4.90;99.90;;;;;;5054641;28;20048;-79
2022/01/09 05:35:16;;;;;;;28.90;4.93;;;5.00;99.90;;;;;;5058398;28;20569;-81
2022/01/09 05:37:42;;;;;;;36.47;4.53;;;5.70;99.90;;;;;;5078036;28;20048;-85
2022/01/09 05:40:08;;;;;;;41.78;5.85;;;5.00;99.90;;;;;;5079540;28;20036;-80
2022/01/09 05:42:33;;;;;;;33.22;6.00;;;5.10;99.90;;;;;;5077300;28;20098;-82
2022/01/09 05:45:00;;;;;;;30.25;4.50;;;5.60;99.90;;;;;;5073231;28;20036;-79
2022/01/09 05:47:25;;;;;;;29.75;5.40;;;5.10;99.90;;;;;;5072584;28;20083;-79
2022/01/09 05:49:51;;;;;;;37.03;5.13;;;5.20;99.90;;;;;;5072941;28;20036;-80
2022/01/09 05:52:17;;;;;;;32.45;4.72;;;5.20;99.90;;;;;;5072683;28;20036;-85
2022/01/09 05:54:42;;;;;;;39.03;4.85;;;6.00;99.90;;;;;;5072649;28;20098;-78
2022/01/09 05:57:08;;;;;;;36.22;5.35;;;5.20;99.90;;;;;;5072630;28;20040;-77
2022/01/09 05:59:34;;;;;;;25.13;4.47;;;5.20;99.90;;;;;;5072675;28;20045;-78
2022/01/09 06:02:00;;;;;;;24.60;4.88;;;5.20;99.90;;;;;;5054318;28;20482;-79
2022/01/09 06:04:25;;;;;;;27.38;4.47;;;5.20;99.90;;;;;;5054640;28;20121;-83
2022/01/09 06:06:51;;;;;;;24.77;4.55;;;5.20;99.90;;;;;;5054171;28;20052;-82
2022/01/09 06:09:17;;;;;;;30.67;3.92;;;5.20;99.90;;;;;;5072560;28;20493;-78
2022/01/09 06:11:46;;;;;;;29.60;4.47;;;5.20;99.90;;;;;;5054982;28;20040;-80
2022/01/09 06:14:11;;;;;;;25.70;4.13;;;5.20;99.90;;;;;;5072239;28;20615;-84
2022/01/09 06:16:37;;;;;;;24.33;4.55;;;5.20;99.90;;;;;;5072114;28;20040;-79
2022/01/09 06:19:03;;;;;;;24.27;4.35;;;5.20;99.90;;;;;;5072884;28;20401;-79
2022/01/09 06:21:28;;;;;;;29.58;4.07;;;5.20;99.90;;;;;;5072996;28;20040;-79
2022/01/09 06:23:55;;;;;;;34.42;4.30;;;5.60;99.90;;;;;;5073270;28;20439;-80
2022/01/09 06:26:21;;;;;;;28.67;3.85;;;5.20;99.90;;;;;;5055191;28;20448;-80
2022/01/09 06:28:47;;;;;;;28.45;4.20;;;6.20;99.90;;;;;;5080476;28;20040;-79
2022/01/09 06:31:12;;;;;;;25.05;4.05;;;5.10;99.90;;;;;;5076340;28;20056;-81
2022/01/09 06:34:16;;;;;;;26.42;4.18;;;5.10;99.90;;;;;;5087499;28;20044;-77
2022/01/09 06:36:59;;;;;;;34.65;4.93;;;5.10;99.90;;;;;;5009202;28;20072;-75
2022/01/09 06:39:25;;;;;;;29.63;5.18;;;5.10;99.90;;;;;;5010320;28;20133;-83
2022/01/09 06:41:51;;;;;;;21.02;3.67;;;5.10;99.90;;;;;;5010046;28;20149;-78
2022/01/09 06:44:17;;;;;;;22.83;4.22;;;5.10;99.90;;;;;;4994069;28;20498;-81
2022/01/09 06:46:43;;;;;;;28.55;4.47;;;5.10;99.90;;;;;;5010239;28;20041;-87
2022/01/09 06:49:09;;;;;;;31.77;5.38;;;5.00;99.90;;;;;;4993689;28;20260;-76
2022/01/09 06:51:35;;;;;;;25.38;4.15;;;5.00;99.90;;;;;;5010433;28;20044;-77
2022/01/09 06:54:01;;;;;;;28.83;3.92;;;5.00;99.90;;;;;;5013496;28;20054;-76
2022/01/09 06:56:27;;;;;;;23.50;3.70;;;5.20;99.90;;;;;;5013524;28;20088;-79
2022/01/09 06:58:52;;;;;;;32.03;4.55;;;5.00;99.90;;;;;;5013331;28;20054;-79
2022/01/09 07:01:19;;;;;;;24.33;4.30;;;5.00;99.90;;;;;;5013351;28;20444;-78
2022/01/09 07:03:44;;;;;;;24.00;4.43;;;5.60;99.90;;;;;;5013120;28;20058;-77
2022/01/09 07:06:11;;;;;;;30.17;4.05;;;5.00;99.90;;;;;;5013306;28;20057;-79
2022/01/09 07:08:36;;;;;;;26.75;3.58;;;5.70;99.90;;;;;;5013443;28;20127;-79
2022/01/09 07:11:04;;;;;;;18.90;3.15;;;5.10;99.90;;;;;;4997373;28;20058;-76
2022/01/09 07:13:29;;;;;;;19.65;4.57;;;5.00;99.90;;;;;;5022612;28;20096;-78
2022/01/09 07:15:56;;;;;;;18.00;3.38;;;4.90;99.90;;;;;;5055070;28;20076;-78
2022/01/09 07:18:22;;;;;;;21.92;3.33;;;4.90;99.90;;;;;;5053841;28;20063;-76
2022/01/09 07:20:47;;;;;;;26.40;3.55;;;5.30;99.90;;;;;;5055030;28;20095;-78
2022/01/09 07:23:13;;;;;;;11.10;2.17;;;4.90;99.90;;;;;;5053628;28;20406;-78
2022/01/09 07:25:39;;;;;;;11.40;2.28;;;4.90;99.90;;;;;;5053779;28;20085;-79
2022/01/09 07:28:05;;;;;;;9.90;2.45;;;4.90;99.90;;;;;;5054752;28;20609;-77
2022/01/09 07:30:30;;;;;;;9.43;1.80;;;5.00;99.90;;;;;;5054904;28;20472;-79
2022/01/09 07:32:56;;;;;;;13.05;1.83;;;4.90;99.90;;;;;;5054487;28;20040;-77
2022/01/09 07:35:23;;;;;;;10.05;1.27;;;4.80;99.90;;;;;;5054679;28;20052;-77
2022/01/09 07:37:49;;;;;;;10.32;1.25;;;4.80;99.90;;;;;;5054817;28;20044;-77
2022/01/09 07:40:15;;;;;;;13.40;1.90;;;4.80;99.90;;;;;;5054697;28;20055;-79
2022/01/09 07:42:41;;;;;;;5.60;1.33;;;4.70;99.90;;;;;;5053263;28;20056;-78
2022/01/09 07:45:07;;;;;;;10.05;1.63;;;4.70;99.90;;;;;;5053186;28;20049;-77
2022/01/09 07:47:34;;;;;;;5.28;1.17;;;4.70;99.90;;;;;;5054676;28;20056;-78
2022/01/09 07:49:59;;;;;;;3.60;0.63;;;4.70;99.90;;;;;;5054434;28;20455;-79
2022/01/09 07:52:25;;;;;;;10.15;1.48;;;4.70;99.90;;;;;;5054417;28;20084;-78
2022/01/09 07:54:50;;;;;;;7.10;1.48;;;4.70;99.90;;;;;;5054406;28;20045;-81
2022/01/09 07:57:17;;;;;;;4.95;1.13;;;4.70;99.90;;;;;;5053035;28;20414;-77
2022/01/09 07:59:43;;;;;;;8.70;2.20;;;4.70;99.90;;;;;;5053934;28;20055;-86
2022/01/09 08:02:09;;;;;;;9.55;1.70;;;4.70;99.90;;;;;;5054481;28;20040;-85
2022/01/09 08:04:35;;;;;;;5.38;1.67;;;4.70;99.90;;;;;;5067149;28;20056;-85
2022/01/09 08:07:01;;;;;;;14.95;1.25;;;4.70;99.90;;;;;;5056464;28;20060;-85
2022/01/09 08:09:26;;;;;;;8.93;0.88;;;4.60;99.90;;;;;;5074551;28;20044;-86
2022/01/09 08:11:52;;;;;;;12.68;1.15;;;4.60;99.90;;;;;;5074319;28;20394;-80
2022/01/09 08:14:18;;;;;;;7.25;1.25;;;4.60;99.90;;;;;;5074077;28;20383;-84
2022/01/09 08:16:44;;;;;;;14.43;2.25;;;4.60;99.90;;;;;;5074748;28;20093;-84
2022/01/09 08:19:10;;;;;;;13.10;1.77;;;4.60;99.90;;;;;;5074473;28;20049;-85
2022/01/09 08:21:36;;;;;;;15.52;1.40;;;4.60;99.90;;;;;;5074334;28;20375;-84
2022/01/09 08:24:02;;;;;;;9.00;0.88;;;4.60;99.90;;;;;;5074258;28;20040;-85
2022/01/09 08:26:27;;;;;;;6.65;0.85;;;4.80;99.90;;;;;;5073876;28;20452;-82
2022/01/09 08:28:54;;;;;;;7.50;1.77;;;4.70;99.90;;;;;;5074001;28;20489;-85
2022/01/09 08:31:20;;;;;;;2.22;0.65;;;4.60;99.90;;;;;;5074118;28;20101;-85
2022/01/09 08:33:46;;;;;;;10.15;1.25;;;4.50;99.90;;;;;;5073831;28;20170;-86
2022/01/09 08:36:12;;;;;;;7.10;1.15;;;4.50;99.90;;;;;;5073955;28;20397;-85
2022/01/09 08:38:39;;;;;;;11.40;1.60;;;4.50;99.90;;;;;;5073852;28;20442;-85
2022/01/09 08:41:05;;;;;;;2.03;0.75;;;4.50;99.90;;;;;;5073924;28;20127;-83
2022/01/09 08:43:33;;;;;;;7.07;1.27;;;4.50;99.90;;;;;;5073336;28;20123;-86
2022/01/09 08:45:59;;;;;;;6.40;1.70;;;4.50;99.90;;;;;;5073651;28;20052;-82
2022/01/09 08:48:25;;;;;;;10.02;1.67;;;4.50;99.90;;;;;;5074118;28;20111;-85
2022/01/09 08:50:51;;;;;;;5.57;1.60;;;4.50;99.90;;;;;;5074067;28;20094;-84
2022/01/09 08:53:16;;;;;;;3.33;0.88;;;4.50;99.90;;;;;;5056128;28;20040;-83
2022/01/09 08:55:42;;;;;;;13.32;1.35;;;4.40;99.90;;;;;;5074922;28;20040;-86
2022/01/09 08:58:08;;;;;;;7.40;0.98;;;4.40;99.90;;;;;;5076887;28;20051;-83
2022/01/09 09:00:34;;;;;;;10.20;1.20;;;4.40;99.90;;;;;;5076369;28;20043;-84
2022/01/09 09:02:59;;;;;;;4.38;1.52;;;4.40;99.90;;;;;;5076160;28;20098;-85
2022/01/09 09:05:25;;;;;;;2.30;0.55;;;4.40;99.90;;;;;;5075956;28;20044;-85
2022/01/09 09:07:51;;;;;;;8.07;1.38;;;4.40;99.90;;;;;;5075337;28;20048;-81
2022/01/09 09:10:16;;;;;;;6.22;0.65;;;4.40;99.90;;;;;;5080101;28;20040;-80
2022/01/09 09:12:42;;;;;;;7.10;1.27;;;4.40;99.90;;;;;;5064441;28;20036;-77
2022/01/09 09:15:08;;;;;;;6.43;0.82;;;4.40;99.90;;;;;;5094835;28;20040;-83
2022/01/09 09:17:34;;;;;;;3.03;1.45;;;4.40;99.90;;;;;;5078495;28;20398;-85
2022/01/09 09:22:36;;;;;;;4.20;0.95;;;4.40;99.90;;;;;;5330634;23;20522;-85
2022/01/09 09:25:02;;;;;;;4.75;0.93;;;4.40;99.90;;;;;;5052955;28;20119;-85
2022/01/09 09:27:30;;;;;;;1.30;0.52;;;4.50;99.90;;;;;;5052982;28;20047;-81
2022/01/09 09:30:07;;;;;;;3.80;1.25;;;4.50;99.90;;;;;;5052600;28;20045;-83
2022/01/09 09:32:34;;;;;;;2.08;0.75;;;4.50;99.90;;;;;;5052778;28;20138;-85
2022/01/09 09:34:59;;;;;;;3.35;0.70;;;4.60;99.90;;;;;;5052845;28;20045;-83
2022/01/09 09:37:28;;;;;;;3.33;0.80;;;5.50;99.90;;;;;;5052642;28;20082;-81
2022/01/09 09:39:54;;;;;;;3.92;1.25;;;4.60;99.90;;;;;;5052661;28;20442;-82
2022/01/09 09:42:21;;;;;;;2.65;0.90;;;4.70;99.90;;;;;;5052955;28;20041;-85
2022/01/09 09:44:47;;;;;;;1.38;0.73;;;4.70;99.90;;;;;;5052429;28;20037;-78
2022/01/09 09:47:13;;;;;;;3.72;0.98;;;4.80;99.90;;;;;;5052571;28;20052;-86
2022/01/09 09:49:39;;;;;;;8.23;1.83;;;5.40;99.90;;;;;;5054373;28;20453;-80
2022/01/09 09:52:06;;;;;;;5.03;0.85;;;5.50;99.90;;;;;;5052573;28;20498;-85
2022/01/09 09:54:32;;;;;;;3.55;0.75;;;4.90;99.90;;;;;;5034187;28;20064;-79
2022/01/09 09:56:58;;;;;;;3.65;1.27;;;4.90;99.90;;;;;;5051979;28;20033;-80
2022/01/09 09:59:27;;;;;;;6.93;1.45;;;5.20;99.90;;;;;;5052531;28;20517;-82
2022/01/09 10:01:53;;;;;;;4.57;0.80;;;4.90;99.90;;;;;;5052958;28;20055;-82
2022/01/09 10:04:19;;;;;;;4.93;1.15;;;5.40;99.90;;;;;;5053180;28;20064;-84
2022/01/09 10:06:47;;;;;;;3.38;1.13;;;5.00;99.90;;;;;;5053492;28;20044;-85
2022/01/09 10:09:19;;;;;;;3.85;1.02;;;5.00;99.90;;;;;;5051574;28;20482;-83
2022/01/09 10:11:50;;;;;;;3.75;0.98;;;5.00;99.90;;;;;;5052558;28;20068;-84
2022/01/09 10:14:21;;;;;;;4.78;1.02;;;5.00;99.90;;;;;;5053744;28;20045;-82
2022/01/09 10:17:07;;;;;;;4.22;1.60;;;5.00;99.90;;;;;;5053518;28;20041;-80
2022/01/09 10:19:53;;;;;;;2.60;1.25;;;5.00;99.90;;;;;;5056264;28;20045;-85
2022/01/09 10:22:33;;;;;;;7.70;1.48;;;5.00;99.90;;;;;;5053109;28;20064;-80
2022/01/09 10:25:32;;;;;;;1.85;0.75;;;5.00;99.90;;;;;;5053402;28;20053;-77
2022/01/09 10:28:07;;;;;;;4.95;1.38;;;5.00;99.90;;;;;;5055237;28;20041;-81
2022/01/09 10:30:51;;;;;;;6.22;1.17;;;5.00;99.90;;;;;;5056297;28;20041;-81
2022/01/09 10:33:20;;;;;;;3.78;1.42;;;5.00;99.90;;;;;;5056064;28;20517;-79
2022/01/09 10:35:47;;;;;;;4.28;1.27;;;5.20;99.90;;;;;;5055891;28;20402;-79
2022/01/09 10:38:21;;;;;;;1.30;0.47;;;5.00;99.90;;;;;;5055743;28;20552;-79
2022/01/09 10:40:54;;;;;;;4.07;1.05;;;5.00;99.90;;;;;;5054536;28;20053;-79
2022/01/09 10:43:22;;;;;;;8.65;1.20;;;5.00;99.90;;;;;;5056253;28;20640;-79
2022/01/09 10:45:59;;;;;;;8.15;1.17;;;5.10;99.90;;;;;;5057554;28;20049;-79
2022/01/09 10:48:39;;;;;;;11.88;1.08;;;5.00;99.90;;;;;;5056433;28;20041;-79
2022/01/09 10:51:09;;;;;;;7.70;1.45;;;5.00;99.90;;;;;;5039110;28;20098;-79
2022/01/09 10:53:37;;;;;;;7.85;1.15;;;5.00;99.90;;;;;;5055508;28;20091;-79
2022/01/09 10:56:21;;;;;;;6.80;1.45;;;5.00;99.90;;;;;;5055314;28;20052;-79
2022/01/09 10:58:50;;;;;;;11.27;1.30;;;5.00;99.90;;;;;;5054219;28;20049;-80
2022/01/09 11:01:26;;;;;;;8.75;1.98;;;5.80;99.90;;;;;;5055115;28;20049;-81
2022/01/09 11:03:52;;;;;;;3.03;0.63;;;5.00;99.90;;;;;;5056156;28;20044;-79
2022/01/09 11:06:19;;;;;;;4.78;0.65;;;5.00;99.90;;;;;;5054143;28;20084;-80
2022/01/09 11:08:46;;;;;;;3.53;1.05;;;5.00;99.90;;;;;;5054940;28;20055;-79
2022/01/09 11:11:25;;;;;;;1.17;0.50;;;5.40;99.90;;;;;;5054158;28;20399;-81
2022/01/09 11:13:53;;;;;;;6.55;1.10;;;5.60;99.90;;;;;;5052919;28;20064;-79
2022/01/09 11:16:32;;;;;;;12.10;1.85;;;5.00;99.90;;;;;;5055156;28;20133;-79
2022/01/09 11:19:06;;;;;;;3.72;0.82;;;5.80;99.90;;;;;;5055850;28;20044;-79
2022/01/09 11:21:32;;;;;;;6.45;1.15;;;5.00;99.90;;;;;;5056987;28;20071;-78
2022/01/09 11:24:32;;;;;;;9.52;1.02;;;5.80;99.90;;;;;;5055141;28;20056;-81
2022/01/09 11:27:16;;;;;;;12.52;1.30;;;5.10;99.90;;;;;;5056231;28;20059;-79
2022/01/09 11:30:06;;;;;;;5.35;1.00;;;5.20;99.90;;;;;;5055638;28;20564;-78
2022/01/09 11:33:11;;;;;;;6.20;1.42;;;5.30;99.90;;;;;;5056208;28;20045;-78
2022/01/09 11:35:54;;;;;;;4.57;0.95;;;5.30;99.90;;;;;;5056077;28;20045;-79
2022/01/09 11:38:32;;;;;;;;;;;5.30;99.90;;;;;;5054270;28;20053;-80
2022/01/09 11:41:21;;;;;;;2.75;0.80;;;5.40;99.90;;;;;;5038165;28;19921;-77
2022/01/09 11:44:14;;;;;;;5.95;0.90;;;5.40;99.90;;;;;;5055499;28;20091;-80
2022/01/09 11:47:06;;;;;;;4.35;0.98;;;5.50;99.90;;;;;;5052655;28;20190;-78
2022/01/09 11:49:57;;;;;;;6.47;0.95;;;5.50;99.90;;;;;;5055629;28;20063;-80
2022/01/09 11:52:28;;;;;;;2.20;0.93;;;5.60;99.90;;;;;;5053703;28;20041;-79
2022/01/09 11:55:04;;;;;;;1.27;0.43;;;6.50;99.90;;;;;;5055519;28;20045;-77
2022/01/09 11:57:37;;;;;;;3.05;1.02;;;5.70;99.90;;;;;;5053496;28;20439;-80
2022/01/09 12:00:06;;;;;;;3.10;0.65;;;5.70;99.90;;;;;;5054300;28;20049;-79
2022/01/09 12:02:33;;;;;;;2.63;0.95;;;5.80;99.90;;;;;;5054278;28;20124;-78
2022/01/09 12:05:07;;;;;;;11.80;1.30;;;5.80;99.90;;;;;;5054036;28;20049;-80
2022/01/09 12:07:32;;;;;;;4.55;1.08;;;5.80;99.90;;;;;;5054175;28;20048;-79
2022/01/09 12:10:00;;;;;;;3.53;0.57;;;5.80;99.90;;;;;;5054191;28;20453;-79
2022/01/09 12:12:31;;;;;;;5.20;1.02;;;5.70;99.90;;;;;;5035408;28;20132;-79
2022/01/09 12:15:02;;;;;;;11.57;1.42;;;5.70;99.90;;;;;;5054032;28;20056;-79
2022/01/09 12:17:36;;;;;;;7.05;1.23;;;6.60;99.90;;;;;;5053754;28;20048;-79
2022/01/09 12:20:14;;;;;;;10.23;1.60;;;5.70;99.90;;;;;;5053535;28;20405;-80
2022/01/09 12:22:43;;;;;;;6.50;0.95;;;5.70;99.90;;;;;;5053651;28;20502;-81
2022/01/09 12:25:24;;;;;;;6.60;1.08;;;5.60;99.90;;;;;;5052786;28;20146;-79
2022/01/09 12:28:02;;;;;;;3.50;0.60;;;5.70;99.90;;;;;;5053656;28;20048;-79
2022/01/09 12:30:35;;;;;;;4.47;0.98;;;5.70;99.90;;;;;;5053502;28;20136;-79
2022/01/09 12:33:28;;;;;;;9.20;1.55;;;5.80;99.90;;;;;;5053665;28;20103;-80
2022/01/09 12:35:56;;;;;;;4.65;1.23;;;6.20;99.90;;;;;;5044688;28;20057;-80
2022/01/09 12:38:25;;;;;;;9.02;2.15;;;5.90;99.90;;;;;;5053588;28;20063;-79
2022/01/09 12:41:08;;;;;;;6.13;0.98;;;6.00;99.90;;;;;;5053247;28;20119;-77
2022/01/09 12:43:37;;;;;;;4.65;1.20;;;6.60;99.90;;;;;;5053324;28;20041;-79
2022/01/09 12:46:21;;;;;;;5.85;0.82;;;6.00;99.90;;;;;;5053399;28;20044;-78
2022/01/09 12:48:54;;;;;;;1.85;0.70;;;6.00;99.90;;;;;;5053375;28;20047;-79
2022/01/09 12:51:20;;;;;;;4.95;0.98;;;6.00;99.90;;;;;;5052614;28;20079;-78
2022/01/09 12:53:51;;;;;;;6.22;0.95;;;6.00;99.90;;;;;;5052830;28;20399;-79
2022/01/09 12:56:21;;;;;;;5.80;1.02;;;5.90;99.90;;;;;;5053108;28;20497;-79
2022/01/09 12:58:53;;;;;;;9.98;1.00;;;6.00;99.90;;;;;;5053243;28;20057;-79
2022/01/09 13:01:28;;;;;;;2.65;1.40;;;6.00;99.90;;;;;;5053367;28;20083;-80